createdAt,value
2019-04-14T00:01:31.002Z,25.27
2019-04-14T00:04:11.541Z,22.10
2019-04-14T00:06:41.950Z,22.00
2019-04-14T00:09:16.195Z,23.00
2019-04-14T00:11:46.477Z,23.40
2019-04-14T00:14:16.427Z,20.37
2019-04-14T00:16:46.741Z,24.63
2019-04-14T00:19:17.357Z,23.53
2019-04-14T00:21:47.597Z,22.07
2019-04-14T00:24:18.421Z,23.13
2019-04-14T00:26:48.780Z,24.53
2019-04-14T00:29:19.298Z,22.40
2019-04-14T00:31:51.882Z,22.80
2019-04-14T00:34:44.346Z,23.23
2019-04-14T00:37:42.376Z,23.67
2019-04-14T00:40:39.019Z,24.23
2019-04-14T00:43:19.966Z,24.23
2019-04-14T00:46:00.860Z,22.10
2019-04-14T00:48:30.022Z,26.87
2019-04-14T00:51:00.572Z,25.10
2019-04-14T00:53:30.186Z,23.70
2019-04-14T00:55:59.813Z,23.20
2019-04-14T00:58:29.977Z,25.03
2019-04-14T01:01:00.508Z,26.57
2019-04-14T01:03:30.941Z,25.07
2019-04-14T01:06:01.214Z,23.77
2019-04-14T01:08:31.438Z,23.23
2019-04-14T01:11:01.187Z,23.13
2019-04-14T01:13:31.106Z,25.00
2019-04-14T01:16:08.914Z,25.00
2019-04-14T01:18:32.471Z,25.00
2019-04-14T01:21:02.498Z,25.07
2019-04-14T01:23:32.663Z,25.17
2019-04-14T01:26:02.935Z,26.83
2019-04-14T01:28:32.999Z,25.30
2019-04-14T01:31:03.367Z,24.73
2019-04-14T01:33:33.684Z,25.80
2019-04-14T01:36:03.984Z,26.00
2019-04-14T01:38:34.367Z,26.17
2019-04-14T01:41:04.292Z,24.40
2019-04-14T01:43:34.192Z,24.40
2019-04-14T01:46:11.613Z,24.63
2019-04-14T01:48:35.137Z,25.70
2019-04-14T01:51:26.954Z,23.90
2019-04-14T01:54:06.058Z,25.93
2019-04-14T01:56:53.706Z,25.60
2019-04-14T01:59:24.159Z,24.07
2019-04-14T02:01:54.524Z,25.50
2019-04-14T02:04:24.574Z,25.80
2019-04-14T02:06:55.210Z,24.50
2019-04-14T02:09:25.127Z,25.23
2019-04-14T02:11:55.206Z,24.40
2019-04-14T02:14:25.531Z,24.37
2019-04-14T02:16:57.831Z,25.23
2019-04-14T02:19:26.498Z,25.30
2019-04-14T02:21:56.481Z,24.87
2019-04-14T02:24:26.374Z,24.50
2019-04-14T02:26:57.004Z,24.77
2019-04-14T02:29:27.619Z,25.60
2019-04-14T02:32:29.998Z,24.20
2019-04-14T02:35:16.738Z,24.43
2019-04-14T02:37:30.167Z,26.20
2019-04-14T02:42:36.503Z,25.60
2019-04-14T02:45:02.162Z,25.10
2019-04-14T02:52:35.750Z,24.77
2019-04-14T02:55:04.472Z,25.27
2019-04-14T03:00:07.814Z,25.43
2019-04-14T03:02:42.593Z,27.60
2019-04-14T03:05:09.456Z,25.67
2019-04-14T03:07:46.884Z,25.00
2019-04-14T03:10:22.312Z,26.03
2019-04-14T03:15:17.421Z,26.30
2019-04-14T03:18:24.056Z,26.23
2019-04-14T03:23:56.341Z,28.70
2019-04-14T03:26:17.764Z,28.43
2019-04-14T03:28:51.694Z,28.20
2019-04-14T03:31:52.473Z,27.13
2019-04-14T03:39:06.088Z,29.33
2019-04-14T03:41:29.132Z,26.97
2019-04-14T03:44:03.265Z,28.03
2019-04-14T03:49:26.911Z,27.67
2019-04-14T03:51:45.133Z,28.03
2019-04-14T03:54:06.158Z,28.17
2019-04-14T03:56:34.008Z,28.53
2019-04-14T03:59:04.214Z,28.07
2019-04-14T04:01:34.543Z,26.60
2019-04-14T04:04:05.331Z,29.10
2019-04-14T04:06:35.637Z,26.80
2019-04-14T04:09:06.465Z,27.93
2019-04-14T04:11:36.642Z,27.67
2019-04-14T04:14:07.400Z,28.27
2019-04-14T04:16:55.168Z,27.37
2019-04-14T04:19:31.580Z,28.87
2019-04-14T04:22:19.347Z,27.53
2019-04-14T04:25:00.804Z,27.87
2019-04-14T04:27:44.296Z,28.50
2019-04-14T04:30:23.144Z,28.67
2019-04-14T04:33:06.596Z,28.93
2019-04-14T04:35:43.887Z,27.77
2019-04-14T04:38:28.873Z,28.20
2019-04-14T04:40:59.404Z,28.30
2019-04-14T04:43:29.769Z,29.73
2019-04-14T04:46:00.511Z,30.33
2019-04-14T04:48:30.697Z,28.60
2019-04-14T04:51:00.699Z,29.03
2019-04-14T04:53:30.944Z,30.37
2019-04-14T04:56:01.515Z,30.23
2019-04-14T04:58:31.258Z,28.70
2019-04-14T05:01:01.411Z,29.77
2019-04-14T05:03:31.814Z,29.07
2019-04-14T05:06:30.958Z,28.40
2019-04-14T05:09:06.401Z,29.30
2019-04-14T05:11:42.671Z,28.73
2019-04-14T05:14:17.324Z,30.97
2019-04-14T05:16:47.064Z,28.27
2019-04-14T05:19:23.754Z,29.83
2019-04-14T05:21:48.140Z,29.00
2019-04-14T05:24:17.981Z,29.63
2019-04-14T05:26:50.879Z,28.90
2019-04-14T05:29:21.087Z,30.97
2019-04-14T05:31:51.178Z,28.63
2019-04-14T05:34:21.553Z,29.60
2019-04-14T05:36:52.159Z,28.93
2019-04-14T05:39:22.080Z,29.03
2019-04-14T05:42:03.855Z,29.63
2019-04-14T05:44:23.196Z,30.33
2019-04-14T05:46:53.516Z,28.63
2019-04-14T05:49:30.659Z,29.27
2019-04-14T05:51:56.629Z,28.40
2019-04-14T05:54:25.929Z,29.90
2019-04-14T05:56:55.836Z,29.50
2019-04-14T05:59:26.455Z,29.53
2019-04-14T06:01:56.960Z,29.43
2019-04-14T06:04:26.679Z,30.07
2019-04-14T06:06:56.354Z,29.43
2019-04-14T06:09:26.042Z,28.37
2019-04-14T06:11:55.746Z,29.27
2019-04-14T06:14:25.393Z,29.17
2019-04-14T06:16:55.131Z,28.17
2019-04-14T06:19:36.682Z,29.27
2019-04-14T06:21:58.478Z,28.67
2019-04-14T06:24:28.110Z,28.90
2019-04-14T06:26:57.813Z,28.30
2019-04-14T06:29:27.391Z,28.33
2019-04-14T06:32:16.222Z,27.97
2019-04-14T06:35:07.995Z,29.70
2019-04-14T06:37:59.218Z,28.07
2019-04-14T06:40:52.007Z,27.30
2019-04-14T06:43:21.617Z,27.13
2019-04-14T06:45:51.163Z,28.87
2019-04-14T06:48:21.502Z,27.93
2019-04-14T06:50:51.177Z,27.83
2019-04-14T06:53:20.820Z,26.23
2019-04-14T06:55:50.360Z,27.60
2019-04-14T06:58:20.202Z,27.10
2019-04-14T07:00:49.919Z,27.47
2019-04-14T07:03:19.671Z,26.10
2019-04-14T07:05:49.314Z,25.37
2019-04-14T07:08:19.112Z,26.27
2019-04-14T07:10:48.693Z,26.07
2019-04-14T07:13:19.568Z,25.83
2019-04-14T07:15:49.483Z,26.30
2019-04-14T07:18:19.090Z,25.37
2019-04-14T07:20:48.666Z,26.60
2019-04-14T07:23:18.327Z,25.27
2019-04-14T07:25:47.878Z,24.97
2019-04-14T07:28:17.562Z,26.67
2019-04-14T07:31:06.322Z,24.43
2019-04-14T07:33:55.078Z,24.93
2019-04-14T07:36:42.773Z,25.43
2019-04-14T07:39:30.041Z,23.70
2019-04-14T07:42:12.052Z,24.20
2019-04-14T07:44:59.230Z,22.83
2019-04-14T07:47:38.546Z,22.70
2019-04-14T07:50:35.025Z,23.77
2019-04-14T07:53:26.922Z,22.47
2019-04-14T07:56:18.717Z,22.80
2019-04-14T07:59:12.807Z,23.93
2019-04-14T08:02:13.834Z,23.43
2019-04-14T08:04:51.934Z,23.00
2019-04-14T08:07:21.545Z,22.73
2019-04-14T08:09:51.111Z,22.67
2019-04-14T08:12:20.897Z,22.97
2019-04-14T08:14:50.501Z,22.37
2019-04-14T08:17:20.278Z,22.80
2019-04-14T08:19:49.939Z,23.27
2019-04-14T08:22:19.615Z,25.57
2019-04-14T08:24:49.335Z,24.90
2019-04-14T08:27:19.019Z,22.90
2019-04-14T08:29:48.718Z,23.87
2019-04-14T08:32:18.436Z,22.80
2019-04-14T08:34:48.151Z,21.43
2019-04-14T08:37:17.775Z,21.83
2019-04-14T08:39:50.554Z,20.77
2019-04-14T08:42:38.266Z,21.60
2019-04-14T08:45:19.107Z,20.93
2019-04-14T08:48:06.841Z,21.17
2019-04-14T08:50:45.220Z,21.10
2019-04-14T08:53:25.432Z,21.10
2019-04-14T08:56:17.238Z,20.67
2019-04-14T08:59:06.024Z,19.83
2019-04-14T09:01:57.796Z,17.90
2019-04-14T09:04:36.141Z,17.20
2019-04-14T09:07:27.940Z,17.83
2019-04-14T09:10:14.501Z,20.33
2019-04-14T09:12:44.886Z,18.90
2019-04-14T09:15:14.621Z,17.73
2019-04-14T09:17:44.234Z,17.23
2019-04-14T09:20:13.987Z,19.27
2019-04-14T09:22:43.696Z,18.27
2019-04-14T09:25:13.363Z,18.30
2019-04-14T09:27:43.041Z,17.73
2019-04-14T09:30:12.917Z,18.67
2019-04-14T09:32:42.660Z,14.93
2019-04-14T09:35:12.554Z,16.73
2019-04-14T09:37:42.136Z,17.40
2019-04-14T09:40:11.806Z,17.77
2019-04-14T09:42:41.335Z,16.27
2019-04-14T09:45:10.922Z,15.93
2019-04-14T09:47:40.462Z,16.33
2019-04-14T09:50:10.176Z,15.70
2019-04-14T09:52:39.771Z,15.17
2019-04-14T09:55:09.401Z,16.50
2019-04-14T09:57:38.989Z,15.40
2019-04-14T10:00:09.083Z,14.47
2019-04-14T10:02:38.670Z,13.73
2019-04-14T10:05:08.397Z,16.43
2019-04-14T10:07:38.147Z,13.80
2019-04-14T10:10:08.046Z,15.40
2019-04-14T10:12:37.693Z,15.23
2019-04-14T10:15:07.466Z,14.13
2019-04-14T10:17:37.054Z,14.17
2019-04-14T10:20:06.790Z,14.63
2019-04-14T10:22:36.882Z,15.17
2019-04-14T10:25:06.918Z,14.27
2019-04-14T10:27:36.854Z,14.07
2019-04-14T10:30:06.711Z,13.90
2019-04-14T10:32:36.259Z,14.67
2019-04-14T10:35:06.112Z,17.03
2019-04-14T10:37:35.844Z,14.83
2019-04-14T10:40:06.228Z,18.23
2019-04-14T10:42:36.014Z,17.33
2019-04-14T10:45:05.766Z,16.77
2019-04-14T10:47:35.368Z,15.07
2019-04-14T10:50:05.464Z,30.53
2019-04-14T10:52:35.144Z,20.47
2019-04-14T10:55:05.179Z,24.23
2019-04-14T10:57:34.714Z,23.83
2019-04-14T11:00:06.587Z,55.10
2019-04-14T11:02:36.281Z,22.90
2019-04-14T11:05:05.970Z,17.63
2019-04-14T11:07:35.550Z,16.93
2019-04-14T11:10:05.762Z,14.40
2019-04-14T11:12:35.403Z,14.50
2019-04-14T11:15:05.573Z,15.07
2019-04-14T11:17:35.165Z,12.30
2019-04-14T11:20:05.398Z,12.23
2019-04-14T11:22:34.985Z,12.47
2019-04-14T11:25:04.682Z,12.43
2019-04-14T11:27:34.417Z,12.43
2019-04-14T11:30:05.004Z,12.37
2019-04-14T11:32:59.541Z,12.23
2019-04-14T11:35:46.734Z,11.90
2019-04-14T11:38:25.601Z,11.90
2019-04-14T11:41:00.282Z,16.10
2019-04-14T11:43:30.038Z,17.13
2019-04-14T11:45:59.786Z,27.70
2019-04-14T11:48:29.497Z,27.07
2019-04-14T11:50:59.211Z,18.83
2019-04-14T11:53:28.835Z,14.83
2019-04-14T11:55:58.595Z,12.33
2019-04-14T11:58:29.247Z,22.63
2019-04-14T12:01:16.951Z,25.50
2019-04-14T12:04:05.807Z,11.67
2019-04-14T12:06:54.573Z,9.80
2019-04-14T12:09:30.021Z,11.00
2019-04-14T12:11:59.945Z,10.50
2019-04-14T12:14:29.666Z,10.67
2019-04-14T12:16:59.866Z,10.33
2019-04-14T12:19:29.806Z,10.53
2019-04-14T12:22:08.190Z,11.73
2019-04-14T12:24:30.826Z,10.90
2019-04-14T12:27:00.965Z,11.33
2019-04-14T12:29:30.677Z,10.23
2019-04-14T12:32:00.247Z,10.17
2019-04-14T12:34:29.874Z,11.03
2019-04-14T12:36:59.761Z,11.80
2019-04-14T12:39:29.473Z,10.30
2019-04-14T12:42:05.499Z,11.83
2019-04-14T12:44:56.150Z,11.13
2019-04-14T12:47:47.972Z,11.43
2019-04-14T12:50:22.308Z,11.33
2019-04-14T12:52:52.123Z,11.93
2019-04-14T12:55:21.822Z,11.03
2019-04-14T12:57:54.126Z,10.43
2019-04-14T13:00:36.525Z,10.77
2019-04-14T13:03:06.162Z,10.58
2019-04-14T13:05:35.796Z,11.43
2019-04-14T13:08:05.427Z,14.30
2019-04-14T13:10:35.237Z,23.57
2019-04-14T13:13:04.805Z,19.30
2019-04-14T13:15:34.464Z,19.83
2019-04-14T13:18:04.082Z,15.83
2019-04-14T13:20:33.828Z,39.00
2019-04-14T13:23:03.422Z,26.77
2019-04-14T13:25:33.366Z,21.83
2019-04-14T13:28:03.000Z,19.37
2019-04-14T13:30:37.487Z,15.77
2019-04-14T13:35:40.483Z,12.50
2019-04-14T13:38:10.008Z,22.30
2019-04-14T13:40:39.621Z,43.67
2019-04-14T13:43:09.161Z,11.30
2019-04-14T13:45:38.898Z,11.67
2019-04-14T13:48:08.452Z,10.50
2019-04-14T13:50:38.374Z,11.07
2019-04-14T13:53:08.069Z,11.27
2019-04-14T13:55:37.745Z,10.90
2019-04-14T13:58:07.286Z,10.00
2019-04-14T14:00:36.985Z,12.13
2019-04-14T14:03:06.593Z,10.07
2019-04-14T14:05:36.178Z,12.50
2019-04-14T14:08:05.784Z,10.97
2019-04-14T14:10:35.419Z,11.47
2019-04-14T14:13:09.848Z,11.07
2019-04-14T14:15:46.839Z,11.23
2019-04-14T14:18:34.236Z,10.77
2019-04-14T14:21:22.255Z,10.43
2019-04-14T14:24:02.286Z,9.87
2019-04-14T14:26:32.940Z,14.27
2019-04-14T14:29:02.662Z,11.13
2019-04-14T14:36:41.014Z,10.30
2019-04-14T14:39:10.827Z,10.87
2019-04-14T14:41:40.448Z,10.27
2019-04-14T14:44:10.051Z,11.20
2019-04-14T14:46:57.582Z,9.93
2019-04-14T14:49:35.980Z,11.10
2019-04-14T14:52:10.749Z,16.12
2019-04-14T14:54:41.135Z,18.07
2019-04-14T14:57:10.760Z,27.20
2019-04-14T14:59:40.424Z,28.50
2019-04-14T15:02:10.097Z,16.37
2019-04-14T15:04:39.826Z,41.67
2019-04-14T15:07:09.564Z,15.43
2019-04-14T15:09:39.233Z,14.83
2019-04-14T15:12:08.875Z,11.27
2019-04-14T15:14:38.534Z,12.03
2019-04-14T15:17:08.633Z,18.00
2019-04-14T15:19:38.384Z,12.07
2019-04-14T15:22:08.327Z,13.33
2019-04-14T15:24:37.967Z,24.10
2019-04-14T15:27:07.777Z,23.97
2019-04-14T15:29:37.430Z,44.80
2019-04-14T15:32:07.289Z,43.17
2019-04-14T15:34:36.965Z,27.87
2019-04-14T15:37:06.910Z,14.00
2019-04-14T15:39:37.707Z,11.13
2019-04-14T15:42:07.723Z,12.60
2019-04-14T15:44:37.359Z,10.80
2019-04-14T15:47:07.102Z,14.30
2019-04-14T15:49:36.746Z,11.57
2019-04-14T15:52:06.584Z,14.27
2019-04-14T15:54:36.183Z,11.93
2019-04-14T15:57:24.643Z,11.10
2019-04-14T16:00:22.499Z,12.83
2019-04-14T16:03:06.578Z,13.60
2019-04-14T16:05:49.820Z,12.27
2019-04-14T16:08:28.086Z,12.30
2019-04-14T16:11:12.577Z,12.43
2019-04-14T16:14:00.890Z,11.83
2019-04-14T16:16:50.108Z,11.17
2019-04-14T16:19:27.409Z,11.40
2019-04-14T16:21:57.020Z,9.77
2019-04-14T16:24:26.568Z,11.17
2019-04-14T16:27:34.687Z,12.17
2019-04-14T16:30:21.793Z,9.20
2019-04-14T16:33:09.112Z,9.40
2019-04-14T16:35:38.882Z,8.60
2019-04-14T16:38:08.508Z,8.80
2019-04-14T16:40:38.147Z,9.80
2019-04-14T16:43:07.859Z,8.97
2019-04-14T16:45:37.531Z,9.87
2019-04-14T16:48:07.279Z,9.63
2019-04-14T16:50:36.883Z,10.00
2019-04-14T16:53:15.305Z,9.87
2019-04-14T16:56:16.264Z,8.20
2019-04-14T16:58:51.559Z,15.57
2019-04-14T17:01:25.602Z,25.53
2019-04-14T17:03:55.284Z,17.17
2019-04-14T17:06:25.061Z,17.03
2019-04-14T17:08:54.794Z,15.00
2019-04-14T17:11:24.514Z,16.53
2019-04-14T17:14:16.878Z,22.33
2019-04-14T17:16:58.668Z,11.70
2019-04-14T17:19:34.636Z,8.80
2019-04-14T17:22:29.942Z,9.13
2019-04-14T17:25:11.209Z,10.07
2019-04-14T17:28:06.089Z,10.90
2019-04-14T17:31:00.802Z,9.10
2019-04-14T17:33:35.556Z,8.37
2019-04-14T17:36:30.203Z,8.07
2019-04-14T17:39:21.810Z,8.80
2019-04-14T17:42:03.451Z,8.60
2019-04-14T17:44:52.190Z,8.90
2019-04-14T17:47:46.158Z,8.73
2019-04-14T17:50:40.843Z,8.43
2019-04-14T17:53:22.168Z,8.43
2019-04-14T17:56:22.850Z,10.27
2019-04-14T17:59:07.477Z,9.20
2019-04-14T18:01:43.456Z,9.93
2019-04-14T18:04:47.228Z,8.57
2019-04-14T18:07:22.686Z,8.67
2019-04-14T18:09:58.539Z,9.10
2019-04-14T18:12:53.014Z,7.90
2019-04-14T18:15:47.630Z,8.97
2019-04-14T18:18:35.090Z,9.03
2019-04-14T18:21:07.010Z,8.00
2019-04-14T18:23:36.892Z,8.47
2019-04-14T18:26:09.678Z,8.30
2019-04-14T18:28:58.366Z,7.90
2019-04-14T18:31:32.887Z,8.33
2019-04-14T18:34:13.921Z,8.00
2019-04-14T18:37:05.712Z,6.93
2019-04-14T18:39:52.886Z,7.37
2019-04-14T18:42:27.170Z,7.53
2019-04-14T18:45:18.633Z,7.03
2019-04-14T18:48:08.855Z,6.80
2019-04-14T18:51:03.411Z,7.03
2019-04-14T18:53:56.743Z,6.67
2019-04-14T18:56:43.915Z,6.90
2019-04-14T18:59:31.143Z,7.80
2019-04-14T19:02:00.935Z,8.27
2019-04-14T19:04:30.470Z,7.37
2019-04-14T19:07:00.141Z,8.23
2019-04-14T19:09:29.683Z,8.17
2019-04-14T19:12:38.006Z,8.13
2019-04-14T19:15:28.867Z,8.57
2019-04-14T19:18:04.535Z,8.73
2019-04-14T19:20:34.150Z,8.43
2019-04-14T19:23:03.931Z,8.87
2019-04-14T19:25:33.582Z,10.23
2019-04-14T19:28:03.292Z,8.83
2019-04-14T19:30:32.839Z,7.67
2019-04-14T19:33:02.480Z,7.47
2019-04-14T19:35:32.094Z,7.40
2019-04-14T19:38:01.755Z,10.80
2019-04-14T19:40:31.337Z,7.50
2019-04-14T19:43:01.072Z,9.97
2019-04-14T19:45:30.618Z,10.17
2019-04-14T19:48:00.370Z,7.57
2019-04-14T19:50:30.016Z,7.77
2019-04-14T19:52:59.728Z,9.23
2019-04-14T19:55:29.349Z,10.47
2019-04-14T19:57:58.939Z,6.70
2019-04-14T20:00:28.675Z,7.17
2019-04-14T20:02:58.330Z,7.07
2019-04-14T20:05:28.063Z,8.20
2019-04-14T20:07:57.703Z,6.87
2019-04-14T20:10:27.761Z,8.73
2019-04-14T20:12:57.406Z,7.83
2019-04-14T20:15:29.702Z,7.47
2019-04-14T20:18:18.419Z,8.37
2019-04-14T20:21:13.233Z,6.77
2019-04-14T20:24:08.239Z,7.30
2019-04-14T20:26:45.590Z,9.03
2019-04-14T20:29:18.328Z,7.83
2019-04-14T20:31:54.421Z,7.17
2019-04-14T20:34:23.942Z,7.17
2019-04-14T20:36:53.515Z,7.43
2019-04-14T20:39:24.849Z,6.77
2019-04-14T20:41:54.586Z,8.03
2019-04-14T20:44:24.135Z,7.40
2019-04-14T20:46:53.798Z,8.13
2019-04-14T20:49:23.329Z,7.33
2019-04-14T20:51:52.860Z,7.47
2019-04-14T20:54:22.590Z,7.30
2019-04-14T20:56:52.112Z,6.77
2019-04-14T20:59:21.756Z,7.67
2019-04-14T21:02:07.596Z,7.80
2019-04-14T21:05:11.543Z,6.80
2019-04-14T21:07:51.991Z,9.17
2019-04-14T21:10:28.676Z,9.17
2019-04-14T21:13:10.967Z,6.23
2019-04-14T21:16:12.128Z,8.37
2019-04-14T21:18:41.418Z,6.97
2019-04-14T21:21:19.765Z,7.77
2019-04-14T21:23:53.287Z,6.23
2019-04-14T21:26:47.798Z,6.20
2019-04-14T21:29:54.575Z,7.33
2019-04-14T21:32:27.842Z,7.00
2019-04-14T21:35:25.443Z,6.93
2019-04-14T21:38:06.133Z,6.97
2019-04-14T21:40:45.527Z,7.33
2019-04-14T21:43:15.280Z,8.27
2019-04-14T21:45:44.888Z,8.67
2019-04-14T21:48:14.934Z,7.97
2019-04-14T21:50:44.655Z,8.33
2019-04-14T21:53:14.322Z,12.17
2019-04-14T21:55:44.243Z,14.87
2019-04-14T21:58:31.574Z,8.40
2019-04-14T22:01:40.571Z,9.07
2019-04-14T22:04:42.631Z,8.00
2019-04-14T22:07:37.303Z,8.43
2019-04-14T22:10:27.289Z,7.10
2019-04-14T22:12:56.932Z,7.30
2019-04-14T22:15:26.617Z,8.43
2019-04-14T22:17:56.358Z,7.73
2019-04-14T22:20:25.946Z,7.67
2019-04-14T22:22:55.466Z,6.83
2019-04-14T22:25:25.220Z,7.60
2019-04-14T22:27:54.838Z,7.73
2019-04-14T22:30:24.819Z,6.50
2019-04-14T22:32:54.343Z,8.57
2019-04-14T22:35:24.159Z,8.80
2019-04-14T22:37:53.679Z,7.50
2019-04-14T22:40:24.203Z,15.20
2019-04-14T22:42:53.718Z,9.53
2019-04-14T22:45:23.546Z,10.30
2019-04-14T22:47:53.069Z,7.43
2019-04-14T22:50:23.331Z,5.90
2019-04-14T22:52:52.979Z,6.70
2019-04-14T22:55:22.633Z,6.27
2019-04-14T22:57:52.147Z,6.80
2019-04-14T23:00:39.978Z,7.17
2019-04-14T23:03:34.859Z,5.77
2019-04-14T23:06:26.453Z,5.17
2019-04-14T23:09:15.155Z,6.40
2019-04-14T23:12:10.086Z,6.43
2019-04-14T23:14:57.214Z,6.37
2019-04-14T23:17:30.848Z,5.97
2019-04-14T23:20:08.000Z,6.00
2019-04-14T23:22:45.913Z,5.93
2019-04-14T23:25:15.480Z,5.80
2019-04-14T23:27:45.052Z,6.03
2019-04-14T23:30:14.675Z,6.37
2019-04-14T23:32:44.282Z,6.53
2019-04-14T23:35:13.971Z,6.03
2019-04-14T23:37:43.486Z,5.40
2019-04-14T23:40:13.278Z,5.40
2019-04-14T23:42:42.934Z,5.50
2019-04-14T23:45:12.683Z,5.80
2019-04-14T23:47:42.459Z,6.30
2019-04-14T23:50:12.206Z,6.13
2019-04-14T23:52:41.722Z,6.30
2019-04-14T23:55:11.291Z,5.87
2019-04-14T23:57:40.809Z,5.50
